sensor_id;sensor_type;location;lat;lon;timestamp;temperature;humidity
71117;SHT31;58775;46.992;9.518;2024-03-23T00:53:40;7.90;86.00
71117;SHT31;58775;46.992;9.518;2024-03-23T00:55:41;8.00;86.06
71117;SHT31;58775;46.992;9.518;2024-03-23T00:57:42;8.06;85.48
71117;SHT31;58775;46.992;9.518;2024-03-23T00:59:44;8.03;84.69
71117;SHT31;58775;46.992;9.518;2024-03-23T01:01:44;7.99;83.96
71117;SHT31;58775;46.992;9.518;2024-03-23T01:03:45;7.96;84.59
71117;SHT31;58775;46.992;9.518;2024-03-23T01:05:46;7.99;84.74
71117;SHT31;58775;46.992;9.518;2024-03-23T01:07:46;8.01;84.45
71117;SHT31;58775;46.992;9.518;2024-03-23T01:09:47;7.94;85.12
71117;SHT31;58775;46.992;9.518;2024-03-23T01:11:48;7.85;85.20
71117;SHT31;58775;46.992;9.518;2024-03-23T01:13:49;7.94;84.45
71117;SHT31;58775;46.992;9.518;2024-03-23T01:15:50;7.62;85.55
71117;SHT31;58775;46.992;9.518;2024-03-23T01:17:52;7.62;85.72
71117;SHT31;58775;46.992;9.518;2024-03-23T01:19:52;7.51;85.35
71117;SHT31;58775;46.992;9.518;2024-03-23T01:21:53;7.47;85.99
71117;SHT31;58775;46.992;9.518;2024-03-23T01:23:54;7.48;85.27
71117;SHT31;58775;46.992;9.518;2024-03-23T01:25:55;7.52;85.21
71117;SHT31;58775;46.992;9.518;2024-03-23T01:27:56;7.48;85.63
71117;SHT31;58775;46.992;9.518;2024-03-23T01:29:56;7.55;85.15
71117;SHT31;58775;46.992;9.518;2024-03-23T01:31:57;7.51;84.86
71117;SHT31;58775;46.992;9.518;2024-03-23T01:33:58;7.38;86.07
71117;SHT31;58775;46.992;9.518;2024-03-23T01:35:59;7.41;85.43
71117;SHT31;58775;46.992;9.518;2024-03-23T01:37:59;7.48;84.99
71117;SHT31;58775;46.992;9.518;2024-03-23T01:40:00;7.34;85.74
71117;SHT31;58775;46.992;9.518;2024-03-23T01:42:01;7.21;86.80
71117;SHT31;58775;46.992;9.518;2024-03-23T01:44:05;7.27;86.03
71117;SHT31;58775;46.992;9.518;2024-03-23T01:46:09;7.29;85.92
71117;SHT31;58775;46.992;9.518;2024-03-23T01:48:11;7.22;84.17
71117;SHT31;58775;46.992;9.518;2024-03-23T01:50:13;7.25;83.94
71117;SHT31;58775;46.992;9.518;2024-03-23T01:52:14;7.24;83.45
71117;SHT31;58775;46.992;9.518;2024-03-23T01:54:15;7.17;84.33
71117;SHT31;58775;46.992;9.518;2024-03-23T01:56:16;7.08;84.37
71117;SHT31;58775;46.992;9.518;2024-03-23T01:58:16;6.97;84.74
71117;SHT31;58775;46.992;9.518;2024-03-23T02:00:17;7.08;84.12
71117;SHT31;58775;46.992;9.518;2024-03-23T02:02:18;6.91;84.41
71117;SHT31;58775;46.992;9.518;2024-03-23T02:04:20;7.01;83.92
71117;SHT31;58775;46.992;9.518;2024-03-23T02:06:21;6.96;84.52
71117;SHT31;58775;46.992;9.518;2024-03-23T02:08:23;7.00;84.49
71117;SHT31;58775;46.992;9.518;2024-03-23T02:10:24;7.11;84.31
71117;SHT31;58775;46.992;9.518;2024-03-23T02:12:25;6.93;85.76
71117;SHT31;58775;46.992;9.518;2024-03-23T02:14:25;6.91;87.49
71117;SHT31;58775;46.992;9.518;2024-03-23T02:16:26;6.96;87.07
71117;SHT31;58775;46.992;9.518;2024-03-23T02:18:27;7.05;87.35
71117;SHT31;58775;46.992;9.518;2024-03-23T02:20:28;7.14;86.18
71117;SHT31;58775;46.992;9.518;2024-03-23T02:22:38;7.10;85.23
71117;SHT31;58775;46.992;9.518;2024-03-23T02:24:39;7.24;84.01
71117;SHT31;58775;46.992;9.518;2024-03-23T02:26:39;7.17;83.61
71117;SHT31;58775;46.992;9.518;2024-03-23T02:28:40;7.21;83.79
71117;SHT31;58775;46.992;9.518;2024-03-23T02:30:41;7.04;85.85
71117;SHT31;58775;46.992;9.518;2024-03-23T02:32:42;7.05;85.75
71117;SHT31;58775;46.992;9.518;2024-03-23T02:34:43;7.07;84.62
71117;SHT31;58775;46.992;9.518;2024-03-23T02:36:43;6.91;85.43
71117;SHT31;58775;46.992;9.518;2024-03-23T02:38:44;6.69;86.20
71117;SHT31;58775;46.992;9.518;2024-03-23T02:40:45;6.80;85.86
71117;SHT31;58775;46.992;9.518;2024-03-23T02:42:46;6.91;85.87
71117;SHT31;58775;46.992;9.518;2024-03-23T02:44:47;6.83;85.78
71117;SHT31;58775;46.992;9.518;2024-03-23T02:46:47;6.83;85.86
71117;SHT31;58775;46.992;9.518;2024-03-23T02:48:49;6.76;85.63
71117;SHT31;58775;46.992;9.518;2024-03-23T02:50:49;6.75;86.44
71117;SHT31;58775;46.992;9.518;2024-03-23T02:52:51;6.62;86.98
71117;SHT31;58775;46.992;9.518;2024-03-23T02:54:51;6.54;87.53
71117;SHT31;58775;46.992;9.518;2024-03-23T02:56:52;6.70;87.30
71117;SHT31;58775;46.992;9.518;2024-03-23T02:58:53;6.63;87.35
71117;SHT31;58775;46.992;9.518;2024-03-23T03:00:54;6.62;86.87
71117;SHT31;58775;46.992;9.518;2024-03-23T03:02:54;6.70;86.99
71117;SHT31;58775;46.992;9.518;2024-03-23T03:04:56;6.65;86.77
71117;SHT31;58775;46.992;9.518;2024-03-23T03:06:56;6.52;87.40
71117;SHT31;58775;46.992;9.518;2024-03-23T03:08:57;6.56;86.40
71117;SHT31;58775;46.992;9.518;2024-03-23T03:10:58;6.60;87.24
71117;SHT31;58775;46.992;9.518;2024-03-23T03:12:59;6.66;86.85
71117;SHT31;58775;46.992;9.518;2024-03-23T03:14:59;6.70;85.81
71117;SHT31;58775;46.992;9.518;2024-03-23T03:17:00;6.63;86.48
71117;SHT31;58775;46.992;9.518;2024-03-23T03:19:01;6.67;86.50
71117;SHT31;58775;46.992;9.518;2024-03-23T03:21:02;6.66;86.61
71117;SHT31;58775;46.992;9.518;2024-03-23T03:23:03;6.59;86.75
71117;SHT31;58775;46.992;9.518;2024-03-23T03:25:06;6.57;86.79
71117;SHT31;58775;46.992;9.518;2024-03-23T03:27:07;6.47;86.89
71117;SHT31;58775;46.992;9.518;2024-03-23T03:29:08;6.54;87.20
71117;SHT31;58775;46.992;9.518;2024-03-23T03:31:10;6.53;86.07
71117;SHT31;58775;46.992;9.518;2024-03-23T03:33:10;6.54;85.84
71117;SHT31;58775;46.992;9.518;2024-03-23T03:35:11;6.47;85.27
71117;SHT31;58775;46.992;9.518;2024-03-23T03:37:12;6.43;85.75
71117;SHT31;58775;46.992;9.518;2024-03-23T03:39:13;6.45;85.99
71117;SHT31;58775;46.992;9.518;2024-03-23T03:41:14;6.39;86.65
71117;SHT31;58775;46.992;9.518;2024-03-23T03:43:15;6.35;86.03
71117;SHT31;58775;46.992;9.518;2024-03-23T03:45:15;6.35;85.80
71117;SHT31;58775;46.992;9.518;2024-03-23T03:47:16;6.37;85.29
71117;SHT31;58775;46.992;9.518;2024-03-23T03:49:17;6.43;85.19
71117;SHT31;58775;46.992;9.518;2024-03-23T03:51:18;6.40;84.98
71117;SHT31;58775;46.992;9.518;2024-03-23T03:53:19;6.45;85.54
71117;SHT31;58775;46.992;9.518;2024-03-23T03:55:20;6.15;85.67
71117;SHT31;58775;46.992;9.518;2024-03-23T03:57:20;6.29;85.54
71117;SHT31;58775;46.992;9.518;2024-03-23T03:59:21;6.09;84.04
71117;SHT31;58775;46.992;9.518;2024-03-23T04:01:22;6.21;84.03
71117;SHT31;58775;46.992;9.518;2024-03-23T04:03:23;6.29;83.98
71117;SHT31;58775;46.992;9.518;2024-03-23T04:05:23;6.29;83.96
71117;SHT31;58775;46.992;9.518;2024-03-23T04:07:24;6.43;84.60
71117;SHT31;58775;46.992;9.518;2024-03-23T04:09:25;6.42;85.03
71117;SHT31;58775;46.992;9.518;2024-03-23T04:11:26;6.28;86.25
71117;SHT31;58775;46.992;9.518;2024-03-23T04:13:26;6.39;85.37
71117;SHT31;58775;46.992;9.518;2024-03-23T04:15:27;6.25;85.62
71117;SHT31;58775;46.992;9.518;2024-03-23T04:17:28;6.29;85.74
71117;SHT31;58775;46.992;9.518;2024-03-23T04:19:32;6.30;85.12
71117;SHT31;58775;46.992;9.518;2024-03-23T04:21:33;6.29;85.11
71117;SHT31;58775;46.992;9.518;2024-03-23T04:23:34;6.25;85.48
71117;SHT31;58775;46.992;9.518;2024-03-23T04:25:35;6.35;85.14
71117;SHT31;58775;46.992;9.518;2024-03-23T04:27:37;6.35;85.40
71117;SHT31;58775;46.992;9.518;2024-03-23T04:29:37;6.28;85.17
71117;SHT31;58775;46.992;9.518;2024-03-23T04:31:38;6.06;86.35
71117;SHT31;58775;46.992;9.518;2024-03-23T04:33:39;6.11;86.63
71117;SHT31;58775;46.992;9.518;2024-03-23T04:35:40;6.25;85.67
71117;SHT31;58775;46.992;9.518;2024-03-23T04:37:40;6.29;84.76
71117;SHT31;58775;46.992;9.518;2024-03-23T04:39:41;6.33;84.57
71117;SHT31;58775;46.992;9.518;2024-03-23T04:41:42;6.37;84.85
71117;SHT31;58775;46.992;9.518;2024-03-23T04:43:43;6.37;84.58
71117;SHT31;58775;46.992;9.518;2024-03-23T04:45:44;6.40;83.61
71117;SHT31;58775;46.992;9.518;2024-03-23T04:47:45;6.35;83.94
71117;SHT31;58775;46.992;9.518;2024-03-23T04:49:46;6.22;84.33
71117;SHT31;58775;46.992;9.518;2024-03-23T04:51:47;6.22;83.55
71117;SHT31;58775;46.992;9.518;2024-03-23T04:53:47;6.12;84.52
71117;SHT31;58775;46.992;9.518;2024-03-23T04:55:48;6.16;84.97
71117;SHT31;58775;46.992;9.518;2024-03-23T04:57:49;6.09;85.89
71117;SHT31;58775;46.992;9.518;2024-03-23T04:59:50;6.04;86.24
71117;SHT31;58775;46.992;9.518;2024-03-23T05:01:50;6.02;86.17
71117;SHT31;58775;46.992;9.518;2024-03-23T05:03:51;5.77;85.97
71117;SHT31;58775;46.992;9.518;2024-03-23T05:05:53;5.79;85.72
71117;SHT31;58775;46.992;9.518;2024-03-23T05:07:54;5.78;86.51
71117;SHT31;58775;46.992;9.518;2024-03-23T05:09:54;5.88;86.27
71117;SHT31;58775;46.992;9.518;2024-03-23T05:11:56;5.75;86.76
71117;SHT31;58775;46.992;9.518;2024-03-23T05:13:57;5.71;86.54
71117;SHT31;58775;46.992;9.518;2024-03-23T05:15:58;5.65;86.53
71117;SHT31;58775;46.992;9.518;2024-03-23T05:17:59;5.81;84.10
71117;SHT31;58775;46.992;9.518;2024-03-23T05:20:00;5.87;84.83
71117;SHT31;58775;46.992;9.518;2024-03-23T05:22:01;5.95;85.39
71117;SHT31;58775;46.992;9.518;2024-03-23T05:24:02;5.75;85.63
71117;SHT31;58775;46.992;9.518;2024-03-23T05:26:03;5.90;85.74
71117;SHT31;58775;46.992;9.518;2024-03-23T05:28:05;5.67;85.76
71117;SHT31;58775;46.992;9.518;2024-03-23T05:30:07;5.70;83.59
71117;SHT31;58775;46.992;9.518;2024-03-23T05:32:09;5.83;84.64
71117;SHT31;58775;46.992;9.518;2024-03-23T05:34:10;5.77;85.81
71117;SHT31;58775;46.992;9.518;2024-03-23T05:36:11;5.90;84.33
71117;SHT31;58775;46.992;9.518;2024-03-23T05:38:13;5.71;84.78
71117;SHT31;58775;46.992;9.518;2024-03-23T05:40:14;5.84;85.10
71117;SHT31;58775;46.992;9.518;2024-03-23T05:42:16;5.83;85.08
71117;SHT31;58775;46.992;9.518;2024-03-23T05:44:18;5.97;84.90
71117;SHT31;58775;46.992;9.518;2024-03-23T05:46:18;6.02;84.46
71117;SHT31;58775;46.992;9.518;2024-03-23T05:48:19;6.06;83.42
71117;SHT31;58775;46.992;9.518;2024-03-23T05:50:20;6.01;82.99
71117;SHT31;58775;46.992;9.518;2024-03-23T05:52:21;6.02;82.14
71117;SHT31;58775;46.992;9.518;2024-03-23T05:54:21;6.01;82.58
71117;SHT31;58775;46.992;9.518;2024-03-23T05:56:22;6.01;82.68
71117;SHT31;58775;46.992;9.518;2024-03-23T05:58:23;6.24;81.46
71117;SHT31;58775;46.992;9.518;2024-03-23T06:00:24;6.37;80.36
71117;SHT31;58775;46.992;9.518;2024-03-23T06:02:26;6.54;79.43
71117;SHT31;58775;46.992;9.518;2024-03-23T06:04:29;6.62;81.30
71117;SHT31;58775;46.992;9.518;2024-03-23T06:06:30;6.75;79.84
71117;SHT31;58775;46.992;9.518;2024-03-23T06:08:31;6.88;79.18
71117;SHT31;58775;46.992;9.518;2024-03-23T06:10:32;7.36;75.30
71117;SHT31;58775;46.992;9.518;2024-03-23T06:12:33;7.76;73.68
71117;SHT31;58775;46.992;9.518;2024-03-23T06:14:34;8.14;73.22
71117;SHT31;58775;46.992;9.518;2024-03-23T06:16:35;8.41;73.37
71117;SHT31;58775;46.992;9.518;2024-03-23T06:18:36;8.98;69.11
71117;SHT31;58775;46.992;9.518;2024-03-23T06:20:37;9.66;67.24
71117;SHT31;58775;46.992;9.518;2024-03-23T06:22:37;9.70;68.44
71117;SHT31;58775;46.992;9.518;2024-03-23T06:24:38;9.84;68.27
71117;SHT31;58775;46.992;9.518;2024-03-23T06:26:39;9.93;67.99
71117;SHT31;58775;46.992;9.518;2024-03-23T06:28:39;10.21;66.82
71117;SHT31;58775;46.992;9.518;2024-03-23T06:30:40;10.49;66.56
71117;SHT31;58775;46.992;9.518;2024-03-23T06:32:41;10.70;65.51
71117;SHT31;58775;46.992;9.518;2024-03-23T06:34:42;10.92;65.15
71117;SHT31;58775;46.992;9.518;2024-03-23T06:36:42;11.20;63.83
71117;SHT31;58775;46.992;9.518;2024-03-23T06:38:45;11.41;62.18
71117;SHT31;58775;46.992;9.518;2024-03-23T06:40:46;11.58;61.08
71117;SHT31;58775;46.992;9.518;2024-03-23T06:42:48;11.67;62.50
71117;SHT31;58775;46.992;9.518;2024-03-23T06:44:48;11.71;62.87
71117;SHT31;58775;46.992;9.518;2024-03-23T06:46:49;11.88;63.12
71117;SHT31;58775;46.992;9.518;2024-03-23T06:48:50;12.02;61.30
71117;SHT31;58775;46.992;9.518;2024-03-23T06:50:58;12.39;59.73
71117;SHT31;58775;46.992;9.518;2024-03-23T06:52:59;12.70;59.34
71117;SHT31;58775;46.992;9.518;2024-03-23T06:55:02;12.36;60.95
71117;SHT31;58775;46.992;9.518;2024-03-23T06:57:05;12.65;60.53
71117;SHT31;58775;46.992;9.518;2024-03-23T06:59:06;11.93;62.97
71117;SHT31;58775;46.992;9.518;2024-03-23T07:01:07;11.89;61.68
71117;SHT31;58775;46.992;9.518;2024-03-23T07:03:07;11.50;63.53
71117;SHT31;58775;46.992;9.518;2024-03-23T07:05:08;11.13;65.58
71117;SHT31;58775;46.992;9.518;2024-03-23T07:07:09;11.03;65.66
71117;SHT31;58775;46.992;9.518;2024-03-23T07:09:10;11.28;64.60
71117;SHT31;58775;46.992;9.518;2024-03-23T07:11:11;11.38;63.21
71117;SHT31;58775;46.992;9.518;2024-03-23T07:13:11;11.82;62.33
71117;SHT31;58775;46.992;9.518;2024-03-23T07:15:12;12.20;61.34
71117;SHT31;58775;46.992;9.518;2024-03-23T07:17:13;12.18;61.09
71117;SHT31;58775;46.992;9.518;2024-03-23T07:19:13;12.67;60.34
71117;SHT31;58775;46.992;9.518;2024-03-23T07:21:16;13.34;58.92
71117;SHT31;58775;46.992;9.518;2024-03-23T07:23:17;13.93;58.66
71117;SHT31;58775;46.992;9.518;2024-03-23T07:25:18;14.42;58.12
71117;SHT31;58775;46.992;9.518;2024-03-23T07:27:19;14.65;55.78
71117;SHT31;58775;46.992;9.518;2024-03-23T07:29:20;15.12;54.92
71117;SHT31;58775;46.992;9.518;2024-03-23T07:31:21;15.39;54.76
71117;SHT31;58775;46.992;9.518;2024-03-23T07:33:23;15.35;54.98
71117;SHT31;58775;46.992;9.518;2024-03-23T07:35:24;15.61;54.40
71117;SHT31;58775;46.992;9.518;2024-03-23T07:37:24;15.60;53.96
71117;SHT31;58775;46.992;9.518;2024-03-23T07:39:26;16.33;51.73
71117;SHT31;58775;46.992;9.518;2024-03-23T07:41:28;16.38;50.29
71117;SHT31;58775;46.992;9.518;2024-03-23T07:43:29;16.33;51.08
71117;SHT31;58775;46.992;9.518;2024-03-23T07:45:29;15.93;53.55
71117;SHT31;58775;46.992;9.518;2024-03-23T07:47:30;16.15;54.06
71117;SHT31;58775;46.992;9.518;2024-03-23T07:49:31;15.23;58.15
71117;SHT31;58775;46.992;9.518;2024-03-23T07:51:32;15.49;56.72
71117;SHT31;58775;46.992;9.518;2024-03-23T07:53:35;15.73;58.94
71117;SHT31;58775;46.992;9.518;2024-03-23T07:55:36;16.12;60.45
71117;SHT31;58775;46.992;9.518;2024-03-23T07:57:36;16.02;61.17
71117;SHT31;58775;46.992;9.518;2024-03-23T07:59:37;15.83;61.97
71117;SHT31;58775;46.992;9.518;2024-03-23T08:01:38;15.51;64.32
71117;SHT31;58775;46.992;9.518;2024-03-23T08:03:41;14.84;66.05
71117;SHT31;58775;46.992;9.518;2024-03-23T08:05:42;14.16;67.30
71117;SHT31;58775;46.992;9.518;2024-03-23T08:07:43;14.28;68.23
71117;SHT31;58775;46.992;9.518;2024-03-23T08:09:44;13.89;68.78
71117;SHT31;58775;46.992;9.518;2024-03-23T08:11:44;14.10;68.01
71117;SHT31;58775;46.992;9.518;2024-03-23T08:13:47;13.97;70.42
71117;SHT31;58775;46.992;9.518;2024-03-23T08:15:48;14.03;69.17
71117;SHT31;58775;46.992;9.518;2024-03-23T08:17:49;13.82;69.21
71117;SHT31;58775;46.992;9.518;2024-03-23T08:19:50;13.25;71.16
71117;SHT31;58775;46.992;9.518;2024-03-23T08:21:53;12.73;72.89
71117;SHT31;58775;46.992;9.518;2024-03-23T08:23:54;12.64;74.45
71117;SHT31;58775;46.992;9.518;2024-03-23T08:26:02;12.61;74.58
71117;SHT31;58775;46.992;9.518;2024-03-23T08:28:03;12.32;75.84
71117;SHT31;58775;46.992;9.518;2024-03-23T08:30:04;12.26;77.82
71117;SHT31;58775;46.992;9.518;2024-03-23T08:32:05;12.39;76.53
71117;SHT31;58775;46.992;9.518;2024-03-23T08:34:06;12.25;77.34
71117;SHT31;58775;46.992;9.518;2024-03-23T08:36:15;12.02;78.56
71117;SHT31;58775;46.992;9.518;2024-03-23T08:38:18;12.09;78.73
71117;SHT31;58775;46.992;9.518;2024-03-23T08:40:18;11.96;79.42
71117;SHT31;58775;46.992;9.518;2024-03-23T08:42:19;11.91;77.95
71117;SHT31;58775;46.992;9.518;2024-03-23T08:44:20;11.99;78.86
71117;SHT31;58775;46.992;9.518;2024-03-23T08:46:21;11.79;78.71
71117;SHT31;58775;46.992;9.518;2024-03-23T08:48:22;11.74;79.38
71117;SHT31;58775;46.992;9.518;2024-03-23T08:50:22;11.95;78.97
71117;SHT31;58775;46.992;9.518;2024-03-23T08:52:23;11.96;78.63
71117;SHT31;58775;46.992;9.518;2024-03-23T08:54:26;11.78;78.67
71117;SHT31;58775;46.992;9.518;2024-03-23T08:56:28;11.74;78.63
71117;SHT31;58775;46.992;9.518;2024-03-23T08:58:29;11.68;79.62
71117;SHT31;58775;46.992;9.518;2024-03-23T09:00:30;11.82;78.82
71117;SHT31;58775;46.992;9.518;2024-03-23T09:02:32;11.71;78.80
71117;SHT31;58775;46.992;9.518;2024-03-23T09:04:32;11.59;79.88
71117;SHT31;58775;46.992;9.518;2024-03-23T09:06:33;11.61;79.88
71117;SHT31;58775;46.992;9.518;2024-03-23T09:08:34;11.51;81.49
71117;SHT31;58775;46.992;9.518;2024-03-23T09:10:41;11.42;79.68
71117;SHT31;58775;46.992;9.518;2024-03-23T09:12:42;11.42;80.21
71117;SHT31;58775;46.992;9.518;2024-03-23T09:14:43;11.52;80.19
71117;SHT31;58775;46.992;9.518;2024-03-23T09:16:43;11.50;80.30
71117;SHT31;58775;46.992;9.518;2024-03-23T09:18:44;11.40;80.71
71117;SHT31;58775;46.992;9.518;2024-03-23T09:20:45;11.44;80.52
71117;SHT31;58775;46.992;9.518;2024-03-23T09:22:48;11.32;81.03
71117;SHT31;58775;46.992;9.518;2024-03-23T09:24:48;11.50;81.27
71117;SHT31;58775;46.992;9.518;2024-03-23T09:26:51;11.35;80.68
71117;SHT31;58775;46.992;9.518;2024-03-23T09:28:53;11.41;80.66
71117;SHT31;58775;46.992;9.518;2024-03-23T09:30:54;11.44;80.74
71117;SHT31;58775;46.992;9.518;2024-03-23T09:32:54;11.31;82.28
71117;SHT31;58775;46.992;9.518;2024-03-23T09:34:55;11.58;81.55
71117;SHT31;58775;46.992;9.518;2024-03-23T09:36:56;11.32;82.23
71117;SHT31;58775;46.992;9.518;2024-03-23T09:38:57;11.23;81.82
71117;SHT31;58775;46.992;9.518;2024-03-23T09:40:58;11.30;81.39
71117;SHT31;58775;46.992;9.518;2024-03-23T09:43:00;11.21;80.49
71117;SHT31;58775;46.992;9.518;2024-03-23T09:45:01;11.07;79.41
71117;SHT31;58775;46.992;9.518;2024-03-23T09:47:02;10.92;78.88
71117;SHT31;58775;46.992;9.518;2024-03-23T09:49:03;10.76;80.59
71117;SHT31;58775;46.992;9.518;2024-03-23T09:51:05;10.34;78.17
71117;SHT31;58775;46.992;9.518;2024-03-23T09:53:12;10.07;78.72
71117;SHT31;58775;46.992;9.518;2024-03-23T09:55:14;9.75;80.11
71117;SHT31;58775;46.992;9.518;2024-03-23T09:57:14;9.37;80.42
71117;SHT31;58775;46.992;9.518;2024-03-23T09:59:15;9.18;81.36
71117;SHT31;58775;46.992;9.518;2024-03-23T10:01:16;9.05;81.19
71117;SHT31;58775;46.992;9.518;2024-03-23T10:03:17;9.02;81.79
71117;SHT31;58775;46.992;9.518;2024-03-23T10:05:22;8.67;81.65
71117;SHT31;58775;46.992;9.518;2024-03-23T10:07:23;8.68;82.80
71117;SHT31;58775;46.992;9.518;2024-03-23T10:09:25;8.55;82.00
71117;SHT31;58775;46.992;9.518;2024-03-23T10:11:26;8.33;82.42
71117;SHT31;58775;46.992;9.518;2024-03-23T10:13:29;7.92;83.20
71117;SHT31;58775;46.992;9.518;2024-03-23T10:15:34;7.93;83.04
71117;SHT31;58775;46.992;9.518;2024-03-23T10:17:35;7.86;83.70
71117;SHT31;58775;46.992;9.518;2024-03-23T10:19:36;7.79;83.47
71117;SHT31;58775;46.992;9.518;2024-03-23T10:21:36;7.80;83.12
71117;SHT31;58775;46.992;9.518;2024-03-23T10:23:42;7.83;81.22
71117;SHT31;58775;46.992;9.518;2024-03-23T10:25:43;7.82;82.30
71117;SHT31;58775;46.992;9.518;2024-03-23T10:27:58;7.82;81.65
71117;SHT31;58775;46.992;9.518;2024-03-23T10:30:12;7.65;82.47
71117;SHT31;58775;46.992;9.518;2024-03-23T10:32:17;7.58;82.70
71117;SHT31;58775;46.992;9.518;2024-03-23T10:34:38;7.83;83.11
71117;SHT31;58775;46.992;9.518;2024-03-23T10:36:48;7.63;81.45
71117;SHT31;58775;46.992;9.518;2024-03-23T10:38:51;7.34;83.14
71117;SHT31;58775;46.992;9.518;2024-03-23T10:40:53;7.28;83.21
71117;SHT31;58775;46.992;9.518;2024-03-23T10:42:57;7.11;82.89
71117;SHT31;58775;46.992;9.518;2024-03-23T10:45:00;7.11;82.75
71117;SHT31;58775;46.992;9.518;2024-03-23T10:47:02;7.12;82.11
71117;SHT31;58775;46.992;9.518;2024-03-23T10:49:03;7.04;81.97
71117;SHT31;58775;46.992;9.518;2024-03-23T10:51:07;7.08;82.03
71117;SHT31;58775;46.992;9.518;2024-03-23T10:53:08;6.98;81.81
71117;SHT31;58775;46.992;9.518;2024-03-23T10:55:10;7.01;82.64
71117;SHT31;58775;46.992;9.518;2024-03-23T10:57:16;6.90;82.79
71117;SHT31;58775;46.992;9.518;2024-03-23T10:59:18;6.98;82.44
71117;SHT31;58775;46.992;9.518;2024-03-23T11:01:19;6.88;83.03
71117;SHT31;58775;46.992;9.518;2024-03-23T11:03:36;6.97;82.44
71117;SHT31;58775;46.992;9.518;2024-03-23T11:05:37;7.08;82.68
71117;SHT31;58775;46.992;9.518;2024-03-23T11:07:38;7.01;81.97
71117;SHT31;58775;46.992;9.518;2024-03-23T11:09:43;7.04;81.76
71117;SHT31;58775;46.992;9.518;2024-03-23T11:11:46;6.97;82.85
71117;SHT31;58775;46.992;9.518;2024-03-23T11:13:50;6.86;81.96
71117;SHT31;58775;46.992;9.518;2024-03-23T11:15:51;7.00;82.73
71117;SHT31;58775;46.992;9.518;2024-03-23T11:18:06;6.94;82.33
71117;SHT31;58775;46.992;9.518;2024-03-23T11:20:08;6.91;81.69
71117;SHT31;58775;46.992;9.518;2024-03-23T11:22:11;7.00;81.92
71117;SHT31;58775;46.992;9.518;2024-03-23T11:24:15;7.05;80.78
71117;SHT31;58775;46.992;9.518;2024-03-23T11:26:15;7.03;81.15
71117;SHT31;58775;46.992;9.518;2024-03-23T11:28:16;7.08;80.73
71117;SHT31;58775;46.992;9.518;2024-03-23T11:32:20;7.11;81.56
71117;SHT31;58775;46.992;9.518;2024-03-23T11:34:22;7.14;81.80
71117;SHT31;58775;46.992;9.518;2024-03-23T11:36:23;7.19;82.04
71117;SHT31;58775;46.992;9.518;2024-03-23T11:38:24;7.07;82.52
71117;SHT31;58775;46.992;9.518;2024-03-23T11:40:24;6.94;82.14
71117;SHT31;58775;46.992;9.518;2024-03-23T11:42:25;6.96;80.85
71117;SHT31;58775;46.992;9.518;2024-03-23T11:44:26;6.86;82.71
71117;SHT31;58775;46.992;9.518;2024-03-23T11:46:27;6.80;81.99
71117;SHT31;58775;46.992;9.518;2024-03-23T11:48:28;6.84;81.93
71117;SHT31;58775;46.992;9.518;2024-03-23T11:50:29;6.69;83.71
71117;SHT31;58775;46.992;9.518;2024-03-23T11:52:30;6.65;83.37
71117;SHT31;58775;46.992;9.518;2024-03-23T11:54:30;6.59;82.18
71117;SHT31;58775;46.992;9.518;2024-03-23T11:56:31;6.56;82.61
71117;SHT31;58775;46.992;9.518;2024-03-23T11:58:32;6.73;80.23
71117;SHT31;58775;46.992;9.518;2024-03-23T12:00:35;6.77;81.06
71117;SHT31;58775;46.992;9.518;2024-03-23T12:02:36;6.75;81.11
71117;SHT31;58775;46.992;9.518;2024-03-23T12:04:38;6.66;81.42
71117;SHT31;58775;46.992;9.518;2024-03-23T12:06:40;6.59;82.37
71117;SHT31;58775;46.992;9.518;2024-03-23T12:08:41;6.70;81.36
71117;SHT31;58775;46.992;9.518;2024-03-23T12:10:44;6.77;80.75
71117;SHT31;58775;46.992;9.518;2024-03-23T12:12:46;6.93;80.34
71117;SHT31;58775;46.992;9.518;2024-03-23T12:15:03;7.14;78.74
71117;SHT31;58775;46.992;9.518;2024-03-23T12:17:10;7.35;77.32
71117;SHT31;58775;46.992;9.518;2024-03-23T12:19:11;7.27;77.13
71117;SHT31;58775;46.992;9.518;2024-03-23T12:21:12;7.34;78.59
71117;SHT31;58775;46.992;9.518;2024-03-23T12:23:13;7.34;79.32
71117;SHT31;58775;46.992;9.518;2024-03-23T12:25:17;7.51;78.68
71117;SHT31;58775;46.992;9.518;2024-03-23T12:27:18;7.45;78.59
71117;SHT31;58775;46.992;9.518;2024-03-23T12:29:19;7.59;76.38
71117;SHT31;58775;46.992;9.518;2024-03-23T12:31:20;7.70;76.78
71117;SHT31;58775;46.992;9.518;2024-03-23T12:33:21;7.68;78.37
71117;SHT31;58775;46.992;9.518;2024-03-23T12:35:22;7.62;78.39
71117;SHT31;58775;46.992;9.518;2024-03-23T12:37:23;7.63;78.24
71117;SHT31;58775;46.992;9.518;2024-03-23T12:39:24;7.55;77.79
71117;SHT31;58775;46.992;9.518;2024-03-23T12:41:24;7.44;78.24
71117;SHT31;58775;46.992;9.518;2024-03-23T12:43:25;7.54;78.06
71117;SHT31;58775;46.992;9.518;2024-03-23T12:45:26;7.63;76.59
71117;SHT31;58775;46.992;9.518;2024-03-23T12:47:27;7.78;77.47
71117;SHT31;58775;46.992;9.518;2024-03-23T12:49:28;7.93;76.07
71117;SHT31;58775;46.992;9.518;2024-03-23T12:51:30;8.09;75.27
71117;SHT31;58775;46.992;9.518;2024-03-23T12:53:30;8.01;76.39
71117;SHT31;58775;46.992;9.518;2024-03-23T12:55:31;7.96;76.22
71117;SHT31;58775;46.992;9.518;2024-03-23T12:57:32;7.94;76.91
71117;SHT31;58775;46.992;9.518;2024-03-23T12:59:33;7.94;76.91
71117;SHT31;58775;46.992;9.518;2024-03-23T13:01:36;8.13;76.44
71117;SHT31;58775;46.992;9.518;2024-03-23T13:03:36;8.44;75.45
71117;SHT31;58775;46.992;9.518;2024-03-23T13:05:37;8.52;74.87
71117;SHT31;58775;46.992;9.518;2024-03-23T13:07:38;8.64;73.79
71117;SHT31;58775;46.992;9.518;2024-03-23T13:09:39;8.67;73.89
71117;SHT31;58775;46.992;9.518;2024-03-23T13:11:40;8.86;73.76
71117;SHT31;58775;46.992;9.518;2024-03-23T13:13:40;8.78;73.24
71117;SHT31;58775;46.992;9.518;2024-03-23T13:15:42;8.75;73.16
71117;SHT31;58775;46.992;9.518;2024-03-23T13:17:43;8.78;74.12
71117;SHT31;58775;46.992;9.518;2024-03-23T13:19:43;8.96;72.41
71117;SHT31;58775;46.992;9.518;2024-03-23T13:21:44;8.95;72.28
71117;SHT31;58775;46.992;9.518;2024-03-23T13:23:48;9.02;72.69
71117;SHT31;58775;46.992;9.518;2024-03-23T13:25:51;9.22;71.93
71117;SHT31;58775;46.992;9.518;2024-03-23T13:27:53;9.60;71.54
71117;SHT31;58775;46.992;9.518;2024-03-23T13:29:54;9.88;70.16
71117;SHT31;58775;46.992;9.518;2024-03-23T13:31:55;10.15;69.95
71117;SHT31;58775;46.992;9.518;2024-03-23T13:33:55;10.29;69.60
71117;SHT31;58775;46.992;9.518;2024-03-23T13:35:56;9.93;70.79
71117;SHT31;58775;46.992;9.518;2024-03-23T13:37:57;10.19;69.32
71117;SHT31;58775;46.992;9.518;2024-03-23T13:39:58;9.97;68.87
71117;SHT31;58775;46.992;9.518;2024-03-23T13:41:59;9.84;70.21
71117;SHT31;58775;46.992;9.518;2024-03-23T13:44:00;9.91;69.65
71117;SHT31;58775;46.992;9.518;2024-03-23T13:46:01;9.77;70.24
71117;SHT31;58775;46.992;9.518;2024-03-23T13:48:02;9.48;69.60
71117;SHT31;58775;46.992;9.518;2024-03-23T13:50:03;9.64;68.73
71117;SHT31;58775;46.992;9.518;2024-03-23T13:52:04;9.85;68.29